< < Back
Terminal Aerodrome Forecast


Current Version              Previous Versions:   1  2  3  4  5  6  7  8  9  

Terminal Aerodrome Forecast

939
FTUS44 KBMX 070535
TAFMGM
TAF
KMGM 070535Z 0706/0806 33006KT P6SM SKC
     FM071700 30009KT P6SM SCT250=

Latest METAR

537
SAUS80 KWBC 071300
MTRMGM
METAR KMGM 071253Z 28004KT 10SM CLR M01/M04 A3025 RMK AO2 SLP243
T10111044


USA.gov is the U.S. government's official web portal to all federal, state and local government web resources and services.